sensor_id;sensor_type;location;lat;lon;timestamp;pressure;altitude;pressure_sealevel;temperature;humidity
31585;BME280;18191;51.288;12.390;2024-03-23T00:54:40;49090.41;;;-144.47;94.23
31585;BME280;18191;51.288;12.390;2024-03-23T00:59:31;49098.34;;;-144.47;95.51
31585;BME280;18191;51.288;12.390;2024-03-23T01:04:21;49072.50;;;-144.47;96.77
31585;BME280;18191;51.288;12.390;2024-03-23T01:09:11;49080.44;;;-144.47;96.42
31585;BME280;18191;51.288;12.390;2024-03-23T01:14:01;49078.47;;;-144.47;96.22
31585;BME280;18191;51.288;12.390;2024-03-23T01:18:52;49088.41;;;-144.47;95.14
31585;BME280;18191;51.288;12.390;2024-03-23T01:23:42;49076.47;;;-144.47;96.42
31585;BME280;18191;51.288;12.390;2024-03-23T01:28:32;49096.38;;;-144.47;95.40
31585;BME280;18191;51.288;12.390;2024-03-23T01:33:22;49056.59;;;-144.47;97.41
31585;BME280;18191;51.288;12.390;2024-03-23T01:38:13;49080.44;;;-144.47;96.89
31585;BME280;18191;51.288;12.390;2024-03-23T01:43:04;49108.31;;;-144.47;98.54
31585;BME280;18191;51.288;12.390;2024-03-23T01:47:54;49084.44;;;-144.47;99.10
31585;BME280;18191;51.288;12.390;2024-03-23T01:52:44;49062.56;;;-144.47;97.77
31585;BME280;18191;51.288;12.390;2024-03-23T01:57:35;49084.44;;;-144.47;95.64
31585;BME280;18191;51.288;12.390;2024-03-23T02:02:25;49096.38;;;-144.47;94.10
31585;BME280;18191;51.288;12.390;2024-03-23T02:07:15;49080.44;;;-144.47;94.62
31585;BME280;18191;51.288;12.390;2024-03-23T02:12:05;49092.38;;;-144.47;94.61
31585;BME280;18191;51.288;12.390;2024-03-23T02:16:56;49084.44;;;-144.47;92.97
31585;BME280;18191;51.288;12.390;2024-03-23T02:21:46;49124.22;;;-144.47;96.15
31585;BME280;18191;51.288;12.390;2024-03-23T02:26:37;49136.16;;;-144.47;96.02
31585;BME280;18191;51.288;12.390;2024-03-23T02:31:27;49090.41;;;-144.47;96.28
31585;BME280;18191;51.288;12.390;2024-03-23T02:36:18;49052.59;;;-144.47;96.61
31585;BME280;18191;51.288;12.390;2024-03-23T02:41:08;49040.66;;;-144.47;96.99
31585;BME280;18191;51.288;12.390;2024-03-23T02:45:58;49144.09;;;-144.47;97.55
31585;BME280;18191;51.288;12.390;2024-03-23T02:50:48;49088.41;;;-144.47;97.39
31585;BME280;18191;51.288;12.390;2024-03-23T02:55:38;49076.47;;;-144.47;97.58
31585;BME280;18191;51.288;12.390;2024-03-23T03:00:29;49080.44;;;-144.47;97.26
31585;BME280;18191;51.288;12.390;2024-03-23T03:05:19;49080.44;;;-144.47;97.20
31585;BME280;18191;51.288;12.390;2024-03-23T03:10:09;49088.41;;;-144.47;96.86
31585;BME280;18191;51.288;12.390;2024-03-23T03:15:01;49092.38;;;-144.47;95.44
31585;BME280;18191;51.288;12.390;2024-03-23T03:19:51;49088.41;;;-144.47;95.57
31585;BME280;18191;51.288;12.390;2024-03-23T03:24:45;49114.28;;;-144.47;96.34
31585;BME280;18191;51.288;12.390;2024-03-23T03:29:35;49112.28;;;-144.47;95.67
31585;BME280;18191;51.288;12.390;2024-03-23T03:34:25;49084.44;;;-144.47;94.17
31585;BME280;18191;51.288;12.390;2024-03-23T03:39:16;49076.47;;;-144.47;90.62
31585;BME280;18191;51.288;12.390;2024-03-23T03:44:06;49088.41;;;-144.47;91.25
31585;BME280;18191;51.288;12.390;2024-03-23T03:48:56;49072.50;;;-144.47;90.78
31585;BME280;18191;51.288;12.390;2024-03-23T03:53:46;49076.47;;;-144.47;90.57
31585;BME280;18191;51.288;12.390;2024-03-23T03:58:37;49076.47;;;-144.47;91.19
31585;BME280;18191;51.288;12.390;2024-03-23T04:03:27;49104.31;;;-144.47;92.41
31585;BME280;18191;51.288;12.390;2024-03-23T04:08:18;49096.38;;;-144.47;92.16
31585;BME280;18191;51.288;12.390;2024-03-23T04:13:08;49120.25;;;-144.47;92.62
31585;BME280;18191;51.288;12.390;2024-03-23T04:17:58;49074.47;;;-144.47;90.79
31585;BME280;18191;51.288;12.390;2024-03-23T04:22:48;49078.47;;;-144.47;91.06
31585;BME280;18191;51.288;12.390;2024-03-23T04:27:39;49100.34;;;-144.47;91.97
31585;BME280;18191;51.288;12.390;2024-03-23T04:32:29;49062.56;;;-144.47;90.35
31585;BME280;18191;51.288;12.390;2024-03-23T04:37:19;49096.38;;;-144.47;91.45
31585;BME280;18191;51.288;12.390;2024-03-23T04:42:10;49088.41;;;-144.47;91.06
31585;BME280;18191;51.288;12.390;2024-03-23T04:47:03;49100.34;;;-144.47;91.06
31585;BME280;18191;51.288;12.390;2024-03-23T04:51:53;49092.38;;;-144.47;92.19
31585;BME280;18191;51.288;12.390;2024-03-23T04:56:43;49136.16;;;-144.47;91.51
31585;BME280;18191;51.288;12.390;2024-03-23T05:01:33;49132.16;;;-144.47;92.14
31585;BME280;18191;51.288;12.390;2024-03-23T05:06:24;49120.25;;;-144.47;92.86
31585;BME280;18191;51.288;12.390;2024-03-23T05:11:15;49112.28;;;-144.47;91.95
31585;BME280;18191;51.288;12.390;2024-03-23T05:16:05;49076.47;;;-144.47;90.81
31585;BME280;18191;51.288;12.390;2024-03-23T05:20:56;49118.25;;;-144.47;90.39
31585;BME280;18191;51.288;12.390;2024-03-23T05:25:47;49108.31;;;-144.47;92.87
31585;BME280;18191;51.288;12.390;2024-03-23T05:30:37;49112.28;;;-144.47;91.43
31585;BME280;18191;51.288;12.390;2024-03-23T05:35:28;49104.31;;;-144.47;92.97
31585;BME280;18191;51.288;12.390;2024-03-23T05:40:18;49084.44;;;-144.47;92.95
31585;BME280;18191;51.288;12.390;2024-03-23T05:45:08;49070.50;;;-144.47;93.71
31585;BME280;18191;51.288;12.390;2024-03-23T05:49:58;49090.41;;;-144.47;93.33
31585;BME280;18191;51.288;12.390;2024-03-23T05:54:49;49088.41;;;-144.47;95.24
31585;BME280;18191;51.288;12.390;2024-03-23T05:59:39;49126.22;;;-144.47;95.72
31585;BME280;18191;51.288;12.390;2024-03-23T06:04:29;49096.38;;;-144.47;97.77
31585;BME280;18191;51.288;12.390;2024-03-23T06:09:19;49144.09;;;-144.47;97.95
31585;BME280;18191;51.288;12.390;2024-03-23T06:14:10;49084.44;;;-144.47;98.13
31585;BME280;18191;51.288;12.390;2024-03-23T06:19:00;49088.41;;;-144.47;99.28
31585;BME280;18191;51.288;12.390;2024-03-23T06:23:53;49120.25;;;-144.47;100.00
31585;BME280;18191;51.288;12.390;2024-03-23T06:28:43;49100.34;;;-144.47;97.92
31585;BME280;18191;51.288;12.390;2024-03-23T06:33:33;49078.47;;;-144.47;97.53
31585;BME280;18191;51.288;12.390;2024-03-23T06:38:24;49084.44;;;-144.47;97.87
31585;BME280;18191;51.288;12.390;2024-03-23T06:43:14;49124.22;;;-144.47;96.54
31585;BME280;18191;51.288;12.390;2024-03-23T06:48:04;49100.34;;;-144.47;96.48
31585;BME280;18191;51.288;12.390;2024-03-23T06:52:57;49112.28;;;-144.47;94.27
31585;BME280;18191;51.288;12.390;2024-03-23T06:57:48;49132.16;;;-144.47;95.40
31585;BME280;18191;51.288;12.390;2024-03-23T07:02:38;49096.38;;;-144.47;95.95
31585;BME280;18191;51.288;12.390;2024-03-23T07:07:28;49106.31;;;-144.47;95.46
31585;BME280;18191;51.288;12.390;2024-03-23T07:12:20;49134.16;;;-144.47;96.95
31585;BME280;18191;51.288;12.390;2024-03-23T07:17:11;49144.09;;;-144.47;97.80
31585;BME280;18191;51.288;12.390;2024-03-23T07:22:01;49096.38;;;-144.47;96.48
31585;BME280;18191;51.288;12.390;2024-03-23T07:26:54;49124.22;;;-144.47;98.16
31585;BME280;18191;51.288;12.390;2024-03-23T07:31:47;49100.34;;;-144.47;97.49
31585;BME280;18191;51.288;12.390;2024-03-23T07:36:38;49104.31;;;-144.47;99.48
31585;BME280;18191;51.288;12.390;2024-03-23T07:41:31;49136.16;;;-144.47;100.00
31585;BME280;18191;51.288;12.390;2024-03-23T07:46:22;49100.34;;;-144.47;100.00
31585;BME280;18191;51.288;12.390;2024-03-23T07:56:06;49078.47;;;-144.47;100.00
31585;BME280;18191;51.288;12.390;2024-03-23T08:01:01;49108.31;;;-144.47;100.00
31585;BME280;18191;51.288;12.390;2024-03-23T08:05:53;49084.44;;;-144.47;100.00
31585;BME280;18191;51.288;12.390;2024-03-23T08:10:52;49104.31;;;-144.47;100.00
31585;BME280;18191;51.288;12.390;2024-03-23T08:15:47;49104.31;;;-144.47;100.00
31585;BME280;18191;51.288;12.390;2024-03-23T08:20:37;49102.34;;;-144.47;100.00
31585;BME280;18191;51.288;12.390;2024-03-23T08:25:30;49104.31;;;-144.47;100.00
31585;BME280;18191;51.288;12.390;2024-03-23T08:30:20;49108.31;;;-144.47;100.00
31585;BME280;18191;51.288;12.390;2024-03-23T08:35:10;49128.19;;;-144.47;100.00
31585;BME280;18191;51.288;12.390;2024-03-23T08:40:01;49112.28;;;-144.47;100.00
31585;BME280;18191;51.288;12.390;2024-03-23T08:44:51;49100.34;;;-144.47;100.00
31585;BME280;18191;51.288;12.390;2024-03-23T08:49:41;49072.50;;;-144.47;100.00
31585;BME280;18191;51.288;12.390;2024-03-23T08:54:32;49120.25;;;-144.47;100.00
31585;BME280;18191;51.288;12.390;2024-03-23T08:59:22;49104.31;;;-144.47;100.00
31585;BME280;18191;51.288;12.390;2024-03-23T09:04:13;49088.41;;;-144.47;100.00
31585;BME280;18191;51.288;12.390;2024-03-23T09:09:04;49070.50;;;-144.47;100.00
31585;BME280;18191;51.288;12.390;2024-03-23T09:13:54;49132.16;;;-144.47;100.00
31585;BME280;18191;51.288;12.390;2024-03-23T09:18:44;49082.44;;;-144.47;100.00
31585;BME280;18191;51.288;12.390;2024-03-23T09:23:35;49134.16;;;-144.47;100.00
31585;BME280;18191;51.288;12.390;2024-03-23T09:28:25;49116.25;;;-144.47;100.00
31585;BME280;18191;51.288;12.390;2024-03-23T09:33:15;49102.34;;;-144.47;100.00
31585;BME280;18191;51.288;12.390;2024-03-23T09:38:06;49128.19;;;-144.47;99.08
31585;BME280;18191;51.288;12.390;2024-03-23T09:42:59;49120.25;;;-144.47;100.00
31585;BME280;18191;51.288;12.390;2024-03-23T09:47:49;49130.19;;;-144.47;100.00
31585;BME280;18191;51.288;12.390;2024-03-23T09:52:41;49100.34;;;-144.47;100.00
31585;BME280;18191;51.288;12.390;2024-03-23T09:57:31;49132.16;;;-144.47;100.00
31585;BME280;18191;51.288;12.390;2024-03-23T10:02:21;49124.22;;;-144.47;100.00
31585;BME280;18191;51.288;12.390;2024-03-23T10:07:12;49100.34;;;-144.47;100.00
31585;BME280;18191;51.288;12.390;2024-03-23T10:12:10;49132.16;;;-144.47;100.00
31585;BME280;18191;51.288;12.390;2024-03-23T10:17:11;49096.38;;;-144.47;100.00
31585;BME280;18191;51.288;12.390;2024-03-23T10:22:02;49100.34;;;-144.47;100.00
31585;BME280;18191;51.288;12.390;2024-03-23T10:26:56;49076.47;;;-144.47;100.00
31585;BME280;18191;51.288;12.390;2024-03-23T10:31:47;49114.28;;;-144.47;100.00
31585;BME280;18191;51.288;12.390;2024-03-23T10:36:37;49120.25;;;-144.47;100.00
31585;BME280;18191;51.288;12.390;2024-03-23T10:41:28;49126.22;;;-144.47;99.40
31585;BME280;18191;51.288;12.390;2024-03-23T10:46:21;49128.19;;;-144.47;97.48
31585;BME280;18191;51.288;12.390;2024-03-23T10:51:11;49096.38;;;-144.47;96.66
31585;BME280;18191;51.288;12.390;2024-03-23T10:56:03;49132.16;;;-144.47;97.78
31585;BME280;18191;51.288;12.390;2024-03-23T11:00:54;49094.38;;;-144.47;98.04
31585;BME280;18191;51.288;12.390;2024-03-23T11:05:47;49076.47;;;-144.47;97.92
31585;BME280;18191;51.288;12.390;2024-03-23T11:10:38;49090.41;;;-144.47;96.62
31585;BME280;18191;51.288;12.390;2024-03-23T11:15:28;49088.41;;;-144.47;95.31
31585;BME280;18191;51.288;12.390;2024-03-23T11:20:19;49132.16;;;-144.47;94.85
31585;BME280;18191;51.288;12.390;2024-03-23T11:35:01;49088.41;;;-144.47;93.64
31585;BME280;18191;51.288;12.390;2024-03-23T11:39:51;49088.41;;;-144.47;90.62
31585;BME280;18191;51.288;12.390;2024-03-23T11:44:42;49088.41;;;-144.47;89.70
31585;BME280;18191;51.288;12.390;2024-03-23T11:49:32;49072.50;;;-144.47;88.45
31585;BME280;18191;51.288;12.390;2024-03-23T11:54:23;49098.34;;;-144.47;84.39
31585;BME280;18191;51.288;12.390;2024-03-23T11:59:29;49108.31;;;-144.47;83.66
31585;BME280;18191;51.288;12.390;2024-03-23T12:04:26;49078.47;;;-144.47;81.99
31585;BME280;18191;51.288;12.390;2024-03-23T12:09:21;49090.41;;;-144.47;82.00
31585;BME280;18191;51.288;12.390;2024-03-23T12:14:38;49084.44;;;-144.47;82.97
31585;BME280;18191;51.288;12.390;2024-03-23T12:19:28;49064.53;;;-144.47;78.15
31585;BME280;18191;51.288;12.390;2024-03-23T12:24:19;49076.47;;;-144.47;79.38
31585;BME280;18191;51.288;12.390;2024-03-23T12:29:16;49074.47;;;-144.47;79.96
31585;BME280;18191;51.288;12.390;2024-03-23T12:34:07;49050.63;;;-144.47;79.00
31585;BME280;18191;51.288;12.390;2024-03-23T12:39:07;49106.31;;;-144.47;78.76
31585;BME280;18191;51.288;12.390;2024-03-23T12:44:06;49074.47;;;-144.47;77.28
31585;BME280;18191;51.288;12.390;2024-03-23T12:48:58;49068.50;;;-144.47;73.95
31585;BME280;18191;51.288;12.390;2024-03-23T12:53:48;49092.38;;;-144.47;73.07
31585;BME280;18191;51.288;12.390;2024-03-23T12:58:38;49072.50;;;-144.47;69.85
31585;BME280;18191;51.288;12.390;2024-03-23T13:03:28;49052.59;;;-144.47;71.47
31585;BME280;18191;51.288;12.390;2024-03-23T13:08:19;49060.56;;;-144.47;69.56
31585;BME280;18191;51.288;12.390;2024-03-23T13:13:12;49040.66;;;-144.47;70.55
31585;BME280;18191;51.288;12.390;2024-03-23T13:18:03;49076.47;;;-144.47;69.62
31585;BME280;18191;51.288;12.390;2024-03-23T13:22:53;49044.66;;;-144.47;72.25
31585;BME280;18191;51.288;12.390;2024-03-23T13:27:44;49040.66;;;-144.47;70.01
31585;BME280;18191;51.288;12.390;2024-03-23T13:32:34;49048.63;;;-144.47;67.41
31585;BME280;18191;51.288;12.390;2024-03-23T13:37:25;49122.22;;;-144.47;62.08
31585;BME280;18191;51.288;12.390;2024-03-23T13:42:16;49038.69;;;-144.47;62.75
31585;BME280;18191;51.288;12.390;2024-03-23T13:47:06;49060.56;;;-144.47;65.36
31585;BME280;18191;51.288;12.390;2024-03-23T13:51:57;49024.75;;;-144.47;61.60
31585;BME280;18191;51.288;12.390;2024-03-23T13:56:48;49076.47;;;-144.47;61.56
31585;BME280;18191;51.288;12.390;2024-03-23T14:01:39;49060.56;;;-144.47;65.26
31585;BME280;18191;51.288;12.390;2024-03-23T14:06:29;49080.44;;;-144.47;71.05
31585;BME280;18191;51.288;12.390;2024-03-23T14:11:19;49096.38;;;-144.47;79.97
31585;BME280;18191;51.288;12.390;2024-03-23T14:16:09;49084.44;;;-144.47;81.58
31585;BME280;18191;51.288;12.390;2024-03-23T14:21:00;49098.34;;;-144.47;81.36
31585;BME280;18191;51.288;12.390;2024-03-23T14:25:52;49060.56;;;-144.47;77.71
31585;BME280;18191;51.288;12.390;2024-03-23T14:30:42;49052.59;;;-144.47;74.22
31585;BME280;18191;51.288;12.390;2024-03-23T14:35:33;49078.47;;;-144.47;71.48
31585;BME280;18191;51.288;12.390;2024-03-23T14:40:23;49044.66;;;-144.47;76.98
31585;BME280;18191;51.288;12.390;2024-03-23T14:45:23;49080.44;;;-144.47;78.54
31585;BME280;18191;51.288;12.390;2024-03-23T14:50:14;49080.44;;;-144.47;81.92
31585;BME280;18191;51.288;12.390;2024-03-23T14:55:06;49064.53;;;-144.47;85.54
31585;BME280;18191;51.288;12.390;2024-03-23T15:00:02;49076.47;;;-144.47;91.20
31585;BME280;18191;51.288;12.390;2024-03-23T15:04:55;49092.38;;;-144.47;93.20
31585;BME280;18191;51.288;12.390;2024-03-23T15:09:45;49080.44;;;-144.47;95.17
31585;BME280;18191;51.288;12.390;2024-03-23T15:14:35;49100.34;;;-144.47;92.77
31585;BME280;18191;51.288;12.390;2024-03-23T15:19:25;49080.44;;;-144.47;92.24
31585;BME280;18191;51.288;12.390;2024-03-23T15:24:16;49084.44;;;-144.47;89.09
31585;BME280;18191;51.288;12.390;2024-03-23T15:29:07;49138.16;;;-144.47;85.52
31585;BME280;18191;51.288;12.390;2024-03-23T15:34:01;49100.34;;;-144.47;83.53
31585;BME280;18191;51.288;12.390;2024-03-23T15:38:52;49108.31;;;-144.47;83.85
31585;BME280;18191;51.288;12.390;2024-03-23T15:43:44;49072.50;;;-144.47;83.58
31585;BME280;18191;51.288;12.390;2024-03-23T15:48:35;49104.31;;;-144.47;82.57
31585;BME280;18191;51.288;12.390;2024-03-23T15:53:26;49068.50;;;-144.47;80.28
31585;BME280;18191;51.288;12.390;2024-03-23T15:58:16;49068.50;;;-144.47;81.97
31585;BME280;18191;51.288;12.390;2024-03-23T16:03:06;49060.56;;;-144.47;80.40
31585;BME280;18191;51.288;12.390;2024-03-23T16:07:57;49076.47;;;-144.47;81.43
31585;BME280;18191;51.288;12.390;2024-03-23T16:12:47;49050.63;;;-144.47;80.98
31585;BME280;18191;51.288;12.390;2024-03-23T16:17:39;49100.34;;;-144.47;82.05
31585;BME280;18191;51.288;12.390;2024-03-23T16:22:38;49100.34;;;-144.47;80.05
31585;BME280;18191;51.288;12.390;2024-03-23T16:27:29;49088.41;;;-144.47;79.99
31585;BME280;18191;51.288;12.390;2024-03-23T16:32:19;49104.31;;;-144.47;82.81
31585;BME280;18191;51.288;12.390;2024-03-23T16:37:16;49114.28;;;-144.47;84.25
31585;BME280;18191;51.288;12.390;2024-03-23T16:42:09;49104.31;;;-144.47;86.78
31585;BME280;18191;51.288;12.390;2024-03-23T16:47:00;49044.66;;;-144.47;87.04
31585;BME280;18191;51.288;12.390;2024-03-23T16:51:50;49106.31;;;-144.47;88.24
31585;BME280;18191;51.288;12.390;2024-03-23T16:56:40;49084.44;;;-144.47;88.79
31585;BME280;18191;51.288;12.390;2024-03-23T17:01:34;49106.31;;;-144.47;90.06
31585;BME280;18191;51.288;12.390;2024-03-23T17:06:24;49108.31;;;-144.47;91.07
31585;BME280;18191;51.288;12.390;2024-03-23T17:11:15;49128.19;;;-144.47;91.22
31585;BME280;18191;51.288;12.390;2024-03-23T17:16:07;49142.13;;;-144.47;90.53
31585;BME280;18191;51.288;12.390;2024-03-23T17:20:58;49104.31;;;-144.47;93.15
31585;BME280;18191;51.288;12.390;2024-03-23T17:25:48;49080.44;;;-144.47;96.98
31585;BME280;18191;51.288;12.390;2024-03-23T17:30:39;49124.22;;;-144.47;96.02
31585;BME280;18191;51.288;12.390;2024-03-23T17:35:29;49100.34;;;-144.47;97.71
31585;BME280;18191;51.288;12.390;2024-03-23T17:40:20;49136.16;;;-144.47;99.92
31585;BME280;18191;51.288;12.390;2024-03-23T17:45:11;49092.38;;;-144.47;100.00
31585;BME280;18191;51.288;12.390;2024-03-23T17:50:04;49118.25;;;-144.47;100.00
31585;BME280;18191;51.288;12.390;2024-03-23T17:54:57;49076.47;;;-144.47;100.00
31585;BME280;18191;51.288;12.390;2024-03-23T17:59:47;49132.16;;;-144.47;100.00
31585;BME280;18191;51.288;12.390;2024-03-23T18:04:38;49124.22;;;-144.47;100.00
31585;BME280;18191;51.288;12.390;2024-03-23T18:09:28;49088.41;;;-144.47;100.00
31585;BME280;18191;51.288;12.390;2024-03-23T18:14:18;49092.38;;;-144.47;100.00
31585;BME280;18191;51.288;12.390;2024-03-23T18:19:09;49112.28;;;-144.47;100.00
31585;BME280;18191;51.288;12.390;2024-03-23T18:23:59;49084.44;;;-144.47;100.00
31585;BME280;18191;51.288;12.390;2024-03-23T18:28:52;49144.09;;;-144.47;100.00
31585;BME280;18191;51.288;12.390;2024-03-23T18:33:42;49072.50;;;-144.47;100.00
31585;BME280;18191;51.288;12.390;2024-03-23T18:38:33;49100.34;;;-144.47;100.00
31585;BME280;18191;51.288;12.390;2024-03-23T18:43:24;49108.31;;;-144.47;100.00
31585;BME280;18191;51.288;12.390;2024-03-23T18:48:17;49100.34;;;-144.47;100.00
31585;BME280;18191;51.288;12.390;2024-03-23T18:53:07;49142.13;;;-144.47;100.00
31585;BME280;18191;51.288;12.390;2024-03-23T18:57:59;49124.22;;;-144.47;100.00
31585;BME280;18191;51.288;12.390;2024-03-23T19:02:49;49150.06;;;-144.47;100.00
31585;BME280;18191;51.288;12.390;2024-03-23T19:07:39;49138.16;;;-144.47;100.00
31585;BME280;18191;51.288;12.390;2024-03-23T19:12:36;49088.41;;;-144.47;100.00
31585;BME280;18191;51.288;12.390;2024-03-23T19:17:26;49104.31;;;-144.47;100.00
31585;BME280;18191;51.288;12.390;2024-03-23T19:22:16;49114.28;;;-144.47;100.00
31585;BME280;18191;51.288;12.390;2024-03-23T19:27:07;49116.25;;;-144.47;100.00
31585;BME280;18191;51.288;12.390;2024-03-23T19:32:01;49116.25;;;-144.47;100.00
31585;BME280;18191;51.288;12.390;2024-03-23T19:36:54;49108.31;;;-144.47;100.00
31585;BME280;18191;51.288;12.390;2024-03-23T19:41:44;49112.28;;;-144.47;100.00
31585;BME280;18191;51.288;12.390;2024-03-23T19:46:34;49104.31;;;-144.47;100.00
31585;BME280;18191;51.288;12.390;2024-03-23T19:51:28;49136.16;;;-144.47;100.00
31585;BME280;18191;51.288;12.390;2024-03-23T19:56:18;49160.03;;;-144.47;100.00
31585;BME280;18191;51.288;12.390;2024-03-23T20:01:15;49179.91;;;-144.47;100.00
31585;BME280;18191;51.288;12.390;2024-03-23T20:06:06;49084.44;;;-144.47;100.00
31585;BME280;18191;51.288;12.390;2024-03-23T20:11:02;49100.34;;;-144.47;100.00
31585;BME280;18191;51.288;12.390;2024-03-23T20:15:54;49100.34;;;-144.47;100.00
31585;BME280;18191;51.288;12.390;2024-03-23T20:20:47;49110.28;;;-144.47;100.00
31585;BME280;18191;51.288;12.390;2024-03-23T20:25:39;49088.41;;;-144.47;100.00
31585;BME280;18191;51.288;12.390;2024-03-23T20:30:30;49128.19;;;-144.47;100.00
31585;BME280;18191;51.288;12.390;2024-03-23T20:35:20;49080.44;;;-144.47;100.00
31585;BME280;18191;51.288;12.390;2024-03-23T20:40:10;49122.22;;;-144.47;100.00
31585;BME280;18191;51.288;12.390;2024-03-23T20:45:01;49140.13;;;-144.47;100.00
31585;BME280;18191;51.288;12.390;2024-03-23T20:49:51;49112.28;;;-144.47;100.00
31585;BME280;18191;51.288;12.390;2024-03-23T20:54:42;49116.25;;;-144.47;100.00
31585;BME280;18191;51.288;12.390;2024-03-23T20:59:32;49167.97;;;-144.47;100.00
31585;BME280;18191;51.288;12.390;2024-03-23T21:04:22;49128.19;;;-144.47;100.00
31585;BME280;18191;51.288;12.390;2024-03-23T21:09:12;49144.09;;;-144.47;100.00
31585;BME280;18191;51.288;12.390;2024-03-23T21:14:03;49106.31;;;-144.47;100.00
31585;BME280;18191;51.288;12.390;2024-03-23T21:18:54;49100.34;;;-144.47;100.00
31585;BME280;18191;51.288;12.390;2024-03-23T21:23:46;49124.22;;;-144.47;100.00
31585;BME280;18191;51.288;12.390;2024-03-23T21:28:36;49122.22;;;-144.47;100.00
31585;BME280;18191;51.288;12.390;2024-03-23T21:33:26;49114.28;;;-144.47;100.00
31585;BME280;18191;51.288;12.390;2024-03-23T21:38:16;49148.09;;;-144.47;100.00
31585;BME280;18191;51.288;12.390;2024-03-23T21:43:07;49146.09;;;-144.47;100.00
31585;BME280;18191;51.288;12.390;2024-03-23T21:47:57;49104.31;;;-144.47;100.00
31585;BME280;18191;51.288;12.390;2024-03-23T21:52:47;49166.00;;;-144.47;100.00
31585;BME280;18191;51.288;12.390;2024-03-23T21:57:37;49108.31;;;-144.47;100.00
31585;BME280;18191;51.288;12.390;2024-03-23T22:02:27;49136.16;;;-144.47;100.00
31585;BME280;18191;51.288;12.390;2024-03-23T22:07:18;49096.38;;;-144.47;100.00
31585;BME280;18191;51.288;12.390;2024-03-23T22:12:08;49160.03;;;-144.47;100.00
31585;BME280;18191;51.288;12.390;2024-03-23T22:16:58;49110.28;;;-144.47;100.00
31585;BME280;18191;51.288;12.390;2024-03-23T22:21:50;49080.44;;;-144.47;100.00
31585;BME280;18191;51.288;12.390;2024-03-23T22:26:41;49112.28;;;-144.47;100.00
31585;BME280;18191;51.288;12.390;2024-03-23T22:31:31;49112.28;;;-144.47;100.00
31585;BME280;18191;51.288;12.390;2024-03-23T22:36:21;49144.09;;;-144.47;100.00
31585;BME280;18191;51.288;12.390;2024-03-23T22:41:12;49100.34;;;-144.47;100.00
31585;BME280;18191;51.288;12.390;2024-03-23T22:46:02;49124.22;;;-144.47;100.00
31585;BME280;18191;51.288;12.390;2024-03-23T22:50:53;49110.28;;;-144.47;100.00
31585;BME280;18191;51.288;12.390;2024-03-23T22:55:48;49076.47;;;-144.47;100.00
31585;BME280;18191;51.288;12.390;2024-03-23T23:00:39;49088.41;;;-144.47;100.00
31585;BME280;18191;51.288;12.390;2024-03-23T23:05:30;49108.31;;;-144.47;100.00
31585;BME280;18191;51.288;12.390;2024-03-23T23:10:21;49092.38;;;-144.47;100.00
31585;BME280;18191;51.288;12.390;2024-03-23T23:15:11;49128.19;;;-144.47;100.00
31585;BME280;18191;51.288;12.390;2024-03-23T23:20:01;49096.38;;;-144.47;100.00
31585;BME280;18191;51.288;12.390;2024-03-23T23:24:53;49094.38;;;-144.47;100.00
31585;BME280;18191;51.288;12.390;2024-03-23T23:29:44;49086.41;;;-144.47;100.00
31585;BME280;18191;51.288;12.390;2024-03-23T23:34:34;49128.19;;;-144.47;100.00
31585;BME280;18191;51.288;12.390;2024-03-23T23:39:27;49132.16;;;-144.47;100.00
31585;BME280;18191;51.288;12.390;2024-03-23T23:44:17;49126.22;;;-144.47;100.00
31585;BME280;18191;51.288;12.390;2024-03-23T23:49:08;49120.25;;;-144.47;99.13
31585;BME280;18191;51.288;12.390;2024-03-23T23:53:58;49112.28;;;-144.47;98.52
31585;BME280;18191;51.288;12.390;2024-03-23T23:58:48;49128.19;;;-144.47;98.66
